createdAt,value
2022-11-22T00:01:06.340Z,96243.03
2022-11-22T00:03:32.826Z,96234.25
2022-11-22T00:05:59.605Z,96237.34
2022-11-22T00:08:26.146Z,96244.50
2022-11-22T00:10:52.696Z,96242.34
2022-11-22T00:13:19.297Z,96241.22
2022-11-22T00:15:45.805Z,96246.19
2022-11-22T00:18:12.288Z,96242.00
2022-11-22T00:20:38.787Z,96228.44
2022-11-22T00:23:05.284Z,96235.16
2022-11-22T00:25:31.775Z,96233.00
2022-11-22T00:27:58.239Z,96228.78
2022-11-22T00:30:24.731Z,96221.28
2022-11-22T00:32:51.248Z,96211.38
2022-11-22T00:35:17.743Z,96200.53
2022-11-22T00:37:44.232Z,96201.44
2022-11-22T00:40:10.967Z,96210.41
2022-11-22T00:42:37.459Z,96200.53
2022-11-22T00:45:04.184Z,96201.81
2022-11-22T00:47:30.691Z,96189.94
2022-11-22T00:49:57.164Z,96201.22
2022-11-22T00:52:23.650Z,96183.13
2022-11-22T00:54:54.475Z,96187.69
2022-11-22T00:57:21.578Z,96191.97
2022-11-22T00:59:48.044Z,96184.22
2022-11-22T01:02:14.532Z,96177.97
2022-11-22T01:04:41.053Z,96166.56
2022-11-22T01:07:07.588Z,96165.09
2022-11-22T01:09:34.123Z,96169.22
2022-11-22T01:12:00.606Z,96161.03
2022-11-22T01:14:27.076Z,96169.91
2022-11-22T01:16:53.583Z,96160.41
2022-11-22T01:19:20.068Z,96159.38
2022-11-22T01:21:46.546Z,96161.66
2022-11-22T01:24:13.086Z,96154.84
2022-11-22T01:26:39.607Z,96149.59
2022-11-22T01:29:06.883Z,96152.34
2022-11-22T01:31:33.387Z,96156.56
2022-11-22T01:33:59.997Z,96154.72
2022-11-22T01:36:27.328Z,96161.00
2022-11-22T01:38:53.816Z,96151.88
2022-11-22T01:41:20.386Z,96144.34
2022-11-22T01:43:46.866Z,96144.81
2022-11-22T01:46:37.397Z,96142.19
2022-11-22T01:49:25.305Z,96151.34
2022-11-22T01:51:52.472Z,96141.13
2022-11-22T01:54:21.514Z,96142.69
2022-11-22T01:56:51.984Z,96135.75
2022-11-22T01:59:19.706Z,96145.31
2022-11-22T02:01:46.201Z,96143.47
2022-11-22T02:04:13.732Z,96148.72
2022-11-22T02:06:51.375Z,96151.22
2022-11-22T02:09:17.839Z,96141.53
2022-11-22T02:11:49.042Z,96146.56
2022-11-22T02:14:15.638Z,96143.59
2022-11-22T02:16:42.509Z,96137.63
2022-11-22T02:19:54.863Z,96131.97
2022-11-22T02:22:40.071Z,96131.19
2022-11-22T02:25:23.721Z,96129.34
2022-11-22T02:27:50.214Z,96134.47
2022-11-22T02:30:16.776Z,96144.06
2022-11-22T02:32:43.298Z,96134.59
2022-11-22T02:35:23.784Z,96124.25
2022-11-22T02:37:52.445Z,96126.63
2022-11-22T02:40:18.941Z,96129.03
2022-11-22T02:42:48.567Z,96132.38
2022-11-22T02:45:15.106Z,96136.94
2022-11-22T02:47:41.638Z,96134.13
2022-11-22T02:50:08.440Z,96129.06
2022-11-22T02:52:34.927Z,96135.34
2022-11-22T02:55:01.398Z,96129.97
2022-11-22T02:57:27.890Z,96131.47
2022-11-22T02:59:54.375Z,96130.88
2022-11-22T03:02:20.914Z,96128.69
2022-11-22T03:04:47.394Z,96130.97
2022-11-22T03:07:14.094Z,96124.09
2022-11-22T03:09:40.602Z,96122.78
2022-11-22T03:12:07.417Z,96127.78
2022-11-22T03:14:33.896Z,96123.28
2022-11-22T03:17:00.395Z,96114.66
2022-11-22T03:19:26.873Z,96117.91
2022-11-22T03:21:53.417Z,96121.00
2022-11-22T03:24:20.264Z,96110.50
2022-11-22T03:26:48.185Z,96116.41
2022-11-22T03:29:14.863Z,96120.66
2022-11-22T03:31:41.369Z,96127.25
2022-11-22T03:34:08.949Z,96116.88
2022-11-22T03:36:35.447Z,96125.88
2022-11-22T03:39:01.963Z,96136.47
2022-11-22T03:41:29.152Z,96137.06
2022-11-22T03:43:55.699Z,96137.88
2022-11-22T03:46:22.242Z,96146.44
2022-11-22T03:48:48.778Z,96144.25
2022-11-22T03:51:15.405Z,96140.66
2022-11-22T03:53:41.917Z,96144.25
2022-11-22T03:56:08.427Z,96143.66
2022-11-22T03:58:35.038Z,96135.78
2022-11-22T04:01:01.646Z,96136.94
2022-11-22T04:03:28.236Z,96137.19
2022-11-22T04:05:54.938Z,96136.84
2022-11-22T04:08:21.413Z,96141.06
2022-11-22T04:10:51.306Z,96143.41
2022-11-22T04:13:18.221Z,96148.25
2022-11-22T04:15:44.832Z,96144.44
2022-11-22T04:18:12.014Z,96145.53
2022-11-22T04:20:57.184Z,96154.16
2022-11-22T04:23:26.226Z,96153.88
2022-11-22T04:25:55.981Z,96164.06
2022-11-22T04:28:40.474Z,96178.19
2022-11-22T04:31:28.978Z,96171.81
2022-11-22T04:33:55.447Z,96185.97
2022-11-22T04:36:21.911Z,96184.03
2022-11-22T04:38:48.398Z,96180.50
2022-11-22T04:41:14.882Z,96183.31
2022-11-22T04:43:59.930Z,96182.16
2022-11-22T04:46:26.407Z,96196.41
2022-11-22T04:48:52.877Z,96199.06
2022-11-22T04:51:38.064Z,96197.91
2022-11-22T04:54:04.610Z,96191.63
2022-11-22T04:56:31.097Z,96197.56
2022-11-22T04:58:57.570Z,96206.28
2022-11-22T05:01:24.069Z,96200.88
2022-11-22T05:03:50.574Z,96203.38
2022-11-22T05:06:17.055Z,96201.78
2022-11-22T05:08:43.545Z,96210.78
2022-11-22T05:11:10.172Z,96206.72
2022-11-22T05:13:38.405Z,96207.84
2022-11-22T05:16:06.392Z,96209.81
2022-11-22T05:18:32.873Z,96208.38
2022-11-22T05:21:00.695Z,96212.72
2022-11-22T05:23:45.872Z,96208.66
2022-11-22T05:26:12.387Z,96209.72
2022-11-22T05:28:39.153Z,96205.28
2022-11-22T05:31:09.717Z,96212.81
2022-11-22T05:33:37.797Z,96204.69
2022-11-22T05:36:04.915Z,96206.28
2022-11-22T05:38:31.510Z,96213.97
2022-11-22T05:40:58.186Z,96203.09
2022-11-22T05:43:24.752Z,96213.34
2022-11-22T05:45:51.213Z,96216.53
2022-11-22T05:48:17.978Z,96213.53
2022-11-22T05:50:44.463Z,96210.78
2022-11-22T05:53:11.299Z,96211.03
2022-11-22T05:55:37.767Z,96208.25
2022-11-22T05:58:04.235Z,96198.13
2022-11-22T06:00:30.711Z,96202.75
2022-11-22T06:03:01.661Z,96212.94
2022-11-22T06:05:28.681Z,96215.94
2022-11-22T06:07:58.615Z,96206.56
2022-11-22T06:10:25.137Z,96213.53
2022-11-22T06:12:51.624Z,96216.28
2022-11-22T06:15:18.102Z,96222.34
2022-11-22T06:17:44.648Z,96224.22
2022-11-22T06:20:11.570Z,96226.59
2022-11-22T06:22:38.098Z,96229.44
2022-11-22T06:25:05.030Z,96227.41
2022-11-22T06:27:31.562Z,96227.16
2022-11-22T06:29:58.038Z,96230.16
2022-11-22T06:32:24.542Z,96239.50
2022-11-22T06:34:51.056Z,96243.94
2022-11-22T06:37:17.566Z,96239.16
2022-11-22T06:39:44.028Z,96239.59
2022-11-22T06:42:10.499Z,96250.06
2022-11-22T06:44:37.004Z,96255.16
2022-11-22T06:47:03.496Z,96257.56
2022-11-22T06:49:30.987Z,96272.31
2022-11-22T06:51:57.642Z,96267.88
2022-11-22T06:54:24.124Z,96276.28
2022-11-22T06:56:50.611Z,96281.56
2022-11-22T06:59:17.619Z,96280.84
2022-11-22T07:01:44.204Z,96278.06
2022-11-22T07:04:10.757Z,96292.53
2022-11-22T07:06:38.588Z,96295.38
2022-11-22T07:09:09.567Z,96292.19
2022-11-22T07:11:36.265Z,96302.53
2022-11-22T07:14:07.793Z,96305.63
2022-11-22T07:16:35.471Z,96307.78
2022-11-22T07:19:01.940Z,96318.91
2022-11-22T07:21:28.474Z,96312.72
2022-11-22T07:23:55.234Z,96316.88
2022-11-22T07:26:22.866Z,96319.19
2022-11-22T07:28:49.423Z,96315.66
2022-11-22T07:31:16.625Z,96321.56
2022-11-22T07:33:43.184Z,96315.09
2022-11-22T07:36:17.611Z,96319.22
2022-11-22T07:38:44.139Z,96319.44
2022-11-22T07:41:10.667Z,96325.47
2022-11-22T07:43:37.243Z,96313.59
2022-11-22T07:46:08.239Z,96324.91
2022-11-22T07:48:34.873Z,96328.25
2022-11-22T07:51:05.755Z,96334.44
2022-11-22T07:53:32.929Z,96332.03
2022-11-22T07:56:06.067Z,96335.84
2022-11-22T07:58:33.577Z,96340.63
2022-11-22T08:01:14.345Z,96345.84
2022-11-22T08:03:40.905Z,96349.47
2022-11-22T08:06:08.408Z,96353.00
2022-11-22T08:08:35.223Z,96353.59
2022-11-22T08:11:01.825Z,96358.38
2022-11-22T08:13:28.379Z,96353.31
2022-11-22T08:15:56.747Z,96350.66
2022-11-22T08:18:25.098Z,96343.13
2022-11-22T08:20:51.576Z,96336.97
2022-11-22T08:23:18.787Z,96342.63
2022-11-22T08:25:45.271Z,96336.16
2022-11-22T08:28:12.049Z,96342.63
2022-11-22T08:30:38.590Z,96342.00
2022-11-22T08:33:05.086Z,96342.56
2022-11-22T08:35:31.571Z,96344.59
2022-11-22T08:37:58.309Z,96339.19
2022-11-22T08:40:24.847Z,96343.66
2022-11-22T08:42:53.900Z,96338.47
2022-11-22T08:45:20.391Z,96341.50
2022-11-22T08:47:48.882Z,96339.75
2022-11-22T08:50:16.110Z,96326.25
2022-11-22T08:52:42.575Z,96331.66
2022-11-22T08:55:09.235Z,96337.88
2022-11-22T08:57:35.707Z,96335.66
2022-11-22T09:00:02.366Z,96329.47
2022-11-22T09:02:28.877Z,96336.66
2022-11-22T09:04:55.355Z,96323.34
2022-11-22T09:10:08.444Z,96342.78
2022-11-22T09:12:34.931Z,96344.84
2022-11-22T09:15:01.416Z,96352.59
2022-11-22T09:17:27.891Z,96351.38
2022-11-22T09:19:54.476Z,96350.63
2022-11-22T09:22:25.355Z,96352.34
2022-11-22T09:24:54.646Z,96348.50
2022-11-22T09:27:21.119Z,96351.25
2022-11-22T09:29:47.617Z,96348.63
2022-11-22T09:32:14.127Z,96360.63
2022-11-22T09:34:40.601Z,96363.47
2022-11-22T09:37:07.076Z,96354.00
2022-11-22T09:39:33.722Z,96351.78
2022-11-22T09:42:23.124Z,96350.34
2022-11-22T09:44:52.658Z,96343.13
2022-11-22T09:47:36.909Z,96343.47
2022-11-22T09:50:29.808Z,96341.88
2022-11-22T09:53:03.021Z,96350.34
2022-11-22T09:55:44.313Z,96351.28
2022-11-22T09:58:11.486Z,96350.28
2022-11-22T10:00:38.149Z,96342.44
2022-11-22T10:03:19.556Z,96347.00
2022-11-22T10:05:51.156Z,96346.66
2022-11-22T10:08:20.441Z,96335.03
2022-11-22T10:10:46.903Z,96328.44
2022-11-22T10:13:19.955Z,96328.13
2022-11-22T10:16:23.592Z,96323.94
2022-11-22T10:18:56.830Z,96328.59
2022-11-22T10:21:23.291Z,96328.28
2022-11-22T10:23:49.787Z,96335.13
2022-11-22T10:26:26.539Z,96323.69
2022-11-22T10:28:55.876Z,96326.00
2022-11-22T10:31:43.595Z,96324.09
2022-11-22T10:34:13.906Z,96324.81
2022-11-22T10:36:46.411Z,96327.28
2022-11-22T10:39:16.172Z,96317.19
2022-11-22T10:42:27.761Z,96324.00
2022-11-22T10:45:06.484Z,96321.03
2022-11-22T10:48:04.566Z,96308.25
2022-11-22T10:51:04.587Z,96306.34
2022-11-22T10:53:34.622Z,96301.56
2022-11-22T10:56:19.839Z,96300.78
2022-11-22T10:59:12.609Z,96297.88
2022-11-22T11:01:44.638Z,96302.31
2022-11-22T11:04:12.072Z,96289.38
2022-11-22T11:07:11.819Z,96295.38
2022-11-22T11:10:10.766Z,96289.63
2022-11-22T11:12:59.367Z,96287.78
2022-11-22T11:15:38.201Z,96274.56
2022-11-22T11:18:08.725Z,96286.25
2022-11-22T11:20:37.172Z,96291.47
2022-11-22T11:23:18.950Z,96290.03
2022-11-22T11:25:46.303Z,96293.63
2022-11-22T11:28:24.362Z,96291.34
2022-11-22T11:31:09.611Z,96295.47
2022-11-22T11:33:38.339Z,96294.88
2022-11-22T11:36:22.124Z,96291.78
2022-11-22T11:38:55.642Z,96298.38
2022-11-22T11:41:32.761Z,96292.84
2022-11-22T11:44:00.702Z,96293.72
2022-11-22T11:46:28.403Z,96299.06
2022-11-22T11:49:09.100Z,96293.31
2022-11-22T11:51:46.279Z,96289.72
2022-11-22T11:54:17.587Z,96283.69
2022-11-22T11:56:46.679Z,96297.44
2022-11-22T11:59:23.713Z,96291.78
2022-11-22T12:02:14.623Z,96291.69
2022-11-22T12:04:59.569Z,96291.03
2022-11-22T12:07:27.661Z,96287.97
2022-11-22T12:09:55.596Z,96282.03
2022-11-22T12:12:45.243Z,96292.72
2022-11-22T12:15:32.866Z,96303.78
2022-11-22T12:18:03.759Z,96292.22
2022-11-22T12:20:41.944Z,96305.66
2022-11-22T12:23:20.452Z,96305.97
2022-11-22T12:25:46.938Z,96314.56
2022-11-22T12:28:26.677Z,96310.56
2022-11-22T12:30:54.311Z,96308.59
2022-11-22T12:33:26.976Z,96301.94
2022-11-22T12:35:53.943Z,96304.28
2022-11-22T12:38:40.506Z,96306.53
2022-11-22T12:41:09.464Z,96289.56
2022-11-22T12:44:05.931Z,96296.69
2022-11-22T12:46:40.012Z,96292.38
2022-11-22T12:49:30.025Z,96296.25
2022-11-22T12:51:58.196Z,96293.06
2022-11-22T12:54:38.187Z,96304.09
2022-11-22T12:57:13.315Z,96303.25
2022-11-22T13:00:29.637Z,96302.75
2022-11-22T13:03:05.747Z,96296.88
2022-11-22T13:05:54.125Z,96292.16
2022-11-22T13:08:42.932Z,96294.78
2022-11-22T13:11:35.838Z,96302.28
2022-11-22T13:14:07.541Z,96293.94
2022-11-22T13:16:34.120Z,96294.66
2022-11-22T13:19:02.743Z,96295.38
2022-11-22T13:22:04.570Z,96305.25
2022-11-22T13:24:49.692Z,96296.97
2022-11-22T13:27:25.809Z,96307.19
2022-11-22T13:29:54.626Z,96292.19
2022-11-22T13:32:23.450Z,96288.75
2022-11-22T13:35:01.802Z,96290.63
2022-11-22T13:37:28.887Z,96296.19
2022-11-22T13:39:55.358Z,96302.91
2022-11-22T13:42:30.854Z,96300.41
2022-11-22T13:44:57.232Z,96296.56
2022-11-22T13:47:23.648Z,96285.53
2022-11-22T13:49:50.920Z,96299.56
2022-11-22T13:52:17.260Z,96290.03
2022-11-22T13:54:46.784Z,96297.63
2022-11-22T13:57:34.665Z,96300.16
2022-11-22T14:00:16.002Z,96297.00
2022-11-22T14:02:48.406Z,96297.00
2022-11-22T14:05:21.639Z,96301.72
2022-11-22T14:07:52.386Z,96289.41
2022-11-22T14:10:46.648Z,96296.41
2022-11-22T14:13:19.098Z,96291.28
2022-11-22T14:16:13.038Z,96293.63
2022-11-22T14:19:07.501Z,96295.00
2022-11-22T14:21:42.739Z,96287.53
2022-11-22T14:24:37.055Z,96288.69
2022-11-22T14:27:09.514Z,96282.44
2022-11-22T14:29:53.871Z,96288.34
2022-11-22T14:32:24.467Z,96292.63
2022-11-22T14:35:08.209Z,96300.31
2022-11-22T14:37:42.287Z,96305.09
2022-11-22T14:40:09.679Z,96293.63
2022-11-22T14:42:36.231Z,96296.31
2022-11-22T14:45:04.383Z,96282.19
2022-11-22T14:47:30.889Z,96291.94
2022-11-22T14:49:57.435Z,96302.03
2022-11-22T14:52:25.383Z,96302.66
2022-11-22T14:55:01.947Z,96297.50
2022-11-22T14:57:29.564Z,96303.47
2022-11-22T15:00:21.627Z,96306.50
2022-11-22T15:03:09.736Z,96308.97
2022-11-22T15:09:11.958Z,96301.13
2022-11-22T15:09:23.874Z,96294.34
2022-11-22T15:11:56.063Z,96296.53
2022-11-22T15:14:40.902Z,96310.59
2022-11-22T15:57:32.156Z,96331.50
2022-11-22T15:59:58.728Z,96333.81
2022-11-22T16:02:29.518Z,96345.91
2022-11-22T16:06:10.196Z,96358.06
2022-11-22T16:07:55.532Z,96360.81
2022-11-22T16:10:23.884Z,96357.88
2022-11-22T16:12:50.921Z,96370.97
2022-11-22T16:15:35.911Z,96361.75
2022-11-22T16:18:27.460Z,96363.59
2022-11-22T16:21:19.216Z,96365.06
2022-11-22T16:23:45.817Z,96362.94
2022-11-22T16:26:21.973Z,96364.88
2022-11-22T16:28:54.430Z,96373.88
2022-11-22T16:31:25.709Z,96367.56
2022-11-22T16:33:52.819Z,96373.06
2022-11-22T16:36:19.933Z,96362.06
2022-11-22T16:38:46.444Z,96375.31
2022-11-22T16:41:20.669Z,96360.41
2022-11-22T16:43:49.334Z,96382.75
2022-11-22T16:46:15.812Z,96376.47
2022-11-22T16:48:42.864Z,96371.41
2022-11-22T16:51:13.776Z,96386.09
2022-11-22T16:53:42.316Z,96388.13
2022-11-22T16:56:15.154Z,96379.50
2022-11-22T16:58:41.623Z,96386.59
2022-11-22T17:01:11.701Z,96385.03
2022-11-22T17:03:38.445Z,96390.56
2022-11-22T17:06:04.987Z,96385.91
2022-11-22T17:08:31.489Z,96385.84
2022-11-22T17:10:58.039Z,96383.59
2022-11-22T17:13:25.636Z,96389.00
2022-11-22T17:15:52.937Z,96381.09
2022-11-22T17:18:19.429Z,96385.66
2022-11-22T17:20:46.386Z,96391.97
2022-11-22T17:23:15.643Z,96391.69
2022-11-22T17:25:42.361Z,96394.00
2022-11-22T17:28:08.821Z,96396.81
2022-11-22T17:30:35.475Z,96391.59
2022-11-22T17:33:01.956Z,96396.06
2022-11-22T17:35:32.176Z,96385.81
2022-11-22T17:38:02.311Z,96389.81
2022-11-22T17:40:28.862Z,96396.00
2022-11-22T17:42:55.385Z,96395.16
2022-11-22T17:45:21.855Z,96401.88
2022-11-22T17:47:48.320Z,96410.78
2022-11-22T17:50:15.103Z,96406.94
2022-11-22T17:52:41.612Z,96415.31
2022-11-22T17:55:13.077Z,96412.53
2022-11-22T17:57:41.207Z,96413.00
2022-11-22T18:00:08.084Z,96410.31
2022-11-22T18:02:34.724Z,96400.16
2022-11-22T18:05:04.454Z,96410.19
2022-11-22T18:07:31.087Z,96398.22
2022-11-22T18:09:57.609Z,96397.91
2022-11-22T18:12:24.077Z,96403.47
2022-11-22T18:14:50.622Z,96402.28
2022-11-22T18:17:17.170Z,96402.78
2022-11-22T18:19:43.777Z,96406.69
2022-11-22T18:22:10.484Z,96403.53
2022-11-22T18:24:36.955Z,96412.56
2022-11-22T18:27:03.466Z,96401.69
2022-11-22T18:29:45.349Z,96407.19
2022-11-22T18:32:11.898Z,96404.38
2022-11-22T18:34:38.834Z,96409.81
2022-11-22T18:37:05.484Z,96404.75
2022-11-22T18:39:34.292Z,96404.66
2022-11-22T18:42:01.342Z,96400.34
2022-11-22T18:44:28.045Z,96408.28
2022-11-22T18:46:54.606Z,96402.72
2022-11-22T18:49:21.089Z,96412.16
2022-11-22T18:51:47.623Z,96416.56
2022-11-22T18:54:14.326Z,96421.69
2022-11-22T18:56:41.142Z,96414.09
2022-11-22T18:59:08.202Z,96415.41
2022-11-22T19:01:34.831Z,96405.53
2022-11-22T19:04:01.848Z,96413.00
2022-11-22T19:06:28.374Z,96409.88
2022-11-22T19:08:55.321Z,96403.09
2022-11-22T19:11:21.906Z,96402.72
2022-11-22T19:13:48.590Z,96407.75
2022-11-22T19:16:16.871Z,96411.41
2022-11-22T19:18:43.775Z,96414.91
2022-11-22T19:21:17.715Z,96409.09
2022-11-22T19:23:44.455Z,96402.38
2022-11-22T19:26:14.102Z,96416.03
2022-11-22T19:28:41.428Z,96414.06
2022-11-22T19:31:13.541Z,96412.47
2022-11-22T19:33:40.346Z,96405.41
2022-11-22T19:36:12.099Z,96409.88
2022-11-22T19:38:38.791Z,96412.22
2022-11-22T19:41:19.391Z,96416.56
2022-11-22T19:43:46.471Z,96408.38
2022-11-22T19:46:13.023Z,96410.69
2022-11-22T19:48:45.341Z,96412.28
2022-11-22T19:51:14.245Z,96418.56
2022-11-22T19:53:41.794Z,96413.00
2022-11-22T19:56:14.490Z,96421.81
2022-11-22T19:58:41.183Z,96409.22
2022-11-22T20:01:12.258Z,96415.56
2022-11-22T20:03:40.533Z,96417.84
2022-11-22T20:06:08.557Z,96411.06
2022-11-22T20:08:35.070Z,96418.22
2022-11-22T20:11:02.541Z,96410.38
2022-11-22T20:13:29.152Z,96416.56
2022-11-22T20:15:56.567Z,96412.16
2022-11-22T20:18:23.101Z,96413.31
2022-11-22T20:20:49.613Z,96408.16
2022-11-22T20:23:16.146Z,96417.47
2022-11-22T20:25:42.642Z,96418.19
2022-11-22T20:28:09.141Z,96424.78
2022-11-22T20:30:35.621Z,96440.16
2022-11-22T20:33:02.414Z,96426.97
2022-11-22T20:35:28.907Z,96428.56
2022-11-22T20:38:58.604Z,96435.03
2022-11-22T20:41:26.895Z,96428.38
2022-11-22T20:43:53.337Z,96428.00
2022-11-22T20:46:21.222Z,96429.94
2022-11-22T20:48:48.359Z,96441.75
2022-11-22T20:51:16.973Z,96438.06
2022-11-22T20:53:43.482Z,96440.44
2022-11-22T20:56:10.134Z,96442.78
2022-11-22T20:58:36.629Z,96443.59
2022-11-22T21:01:12.431Z,96433.38
2022-11-22T21:03:38.932Z,96437.28
2022-11-22T21:06:05.572Z,96428.91
2022-11-22T21:08:32.727Z,96432.47
2022-11-22T21:11:14.189Z,96428.56
2022-11-22T21:13:40.969Z,96443.03
2022-11-22T21:16:22.256Z,96431.59
2022-11-22T21:19:04.974Z,96432.41
2022-11-22T21:21:32.232Z,96435.44
2022-11-22T21:23:59.940Z,96433.19
2022-11-22T21:26:26.631Z,96434.34
2022-11-22T21:28:53.274Z,96442.97
2022-11-22T21:31:19.946Z,96433.31
2022-11-22T21:33:46.575Z,96442.78
2022-11-22T21:36:13.167Z,96459.28
2022-11-22T21:38:39.889Z,96456.25
2022-11-22T21:41:37.759Z,96455.94
2022-11-22T21:43:55.743Z,96473.84
2022-11-22T21:46:22.271Z,96467.50
2022-11-22T21:48:50.175Z,96469.41
2022-11-22T21:51:16.905Z,96469.50
2022-11-22T21:53:43.406Z,96474.22
2022-11-22T21:56:09.897Z,96480.13
2022-11-22T21:58:36.364Z,96477.41
2022-11-22T22:01:07.249Z,96473.50
2022-11-22T22:03:36.173Z,96477.03
2022-11-22T22:06:02.628Z,96481.03
2022-11-22T22:08:30.334Z,96472.41
2022-11-22T22:11:00.942Z,96473.94
2022-11-22T22:13:28.805Z,96476.25
2022-11-22T22:15:57.247Z,96473.13
2022-11-22T22:18:24.320Z,96481.03
2022-11-22T22:20:59.454Z,96478.63
2022-11-22T22:23:25.998Z,96480.22
2022-11-22T22:25:57.176Z,96476.69
2022-11-22T22:28:24.248Z,96485.44
2022-11-22T22:30:50.778Z,96485.81
2022-11-22T22:33:17.289Z,96480.72
2022-11-22T22:35:43.759Z,96480.38
2022-11-22T22:38:10.230Z,96487.41
2022-11-22T22:40:36.703Z,96488.56
2022-11-22T22:43:03.176Z,96487.41
2022-11-22T22:45:29.723Z,96487.03
2022-11-22T22:47:56.201Z,96488.56
2022-11-22T22:50:22.683Z,96488.91
2022-11-22T22:52:49.205Z,96494.34
2022-11-22T22:55:15.722Z,96489.22
2022-11-22T22:57:42.206Z,96494.69
2022-11-22T23:00:09.346Z,96492.31
2022-11-22T23:02:36.823Z,96492.41
2022-11-22T23:05:03.409Z,96495.16
2022-11-22T23:07:30.247Z,96495.22
2022-11-22T23:09:56.759Z,96498.25
2022-11-22T23:12:23.314Z,96497.09
2022-11-22T23:14:49.834Z,96499.41
2022-11-22T23:17:16.341Z,96500.19
2022-11-22T23:19:42.898Z,96501.88
2022-11-22T23:22:09.385Z,96507.38
2022-11-22T23:24:35.850Z,96503.84
2022-11-22T23:27:02.371Z,96511.19
2022-11-22T23:29:29.157Z,96511.19
2022-11-22T23:31:55.845Z,96500.97
2022-11-22T23:34:22.343Z,96505.63
2022-11-22T23:36:48.889Z,96507.50
2022-11-22T23:39:15.420Z,96510.16
2022-11-22T23:41:41.909Z,96504.66
2022-11-22T23:44:08.486Z,96511.84
2022-11-22T23:46:35.003Z,96514.16
2022-11-22T23:49:01.601Z,96508.66
2022-11-22T23:51:28.693Z,96511.91
2022-11-22T23:53:59.519Z,96519.91
2022-11-22T23:56:26.328Z,96514.50
2022-11-22T23:58:52.947Z,96517.75
